createdAt,value
2023-01-27T00:00:37.765Z,23.10
2023-01-27T00:01:37.779Z,20.40
2023-01-27T00:02:38.579Z,19.70
2023-01-27T00:03:37.807Z,25.00
2023-01-27T00:04:37.748Z,19.90
2023-01-27T00:05:37.742Z,23.80
2023-01-27T00:06:37.725Z,22.80
2023-01-27T00:07:37.694Z,20.50
2023-01-27T00:08:37.683Z,24.30
2023-01-27T00:09:37.719Z,23.00
2023-01-27T00:10:37.693Z,24.60
2023-01-27T00:11:37.718Z,21.80
2023-01-27T00:12:37.677Z,22.60
2023-01-27T00:13:37.717Z,20.70
2023-01-27T00:14:37.621Z,20.80
2023-01-27T00:15:37.744Z,20.50
2023-01-27T00:16:37.600Z,24.20
2023-01-27T00:17:37.611Z,24.40
2023-01-27T00:18:37.606Z,21.20
2023-01-27T00:19:37.604Z,24.00
2023-01-27T00:20:37.580Z,25.70
2023-01-27T00:21:37.584Z,22.60
2023-01-27T00:22:37.579Z,20.70
2023-01-27T00:23:37.547Z,21.80
2023-01-27T00:24:37.539Z,22.40
2023-01-27T00:25:37.511Z,21.10
2023-01-27T00:26:37.526Z,28.30
2023-01-27T00:27:37.519Z,21.30
2023-01-27T00:28:37.486Z,23.00
2023-01-27T00:29:37.492Z,21.70
2023-01-27T00:30:37.492Z,26.10
2023-01-27T00:31:37.555Z,22.50
2023-01-27T00:32:37.426Z,26.50
2023-01-27T00:33:37.426Z,23.30
2023-01-27T00:34:37.458Z,22.70
2023-01-27T00:35:37.441Z,21.30
2023-01-27T00:36:37.406Z,24.10
2023-01-27T00:37:37.391Z,25.20
2023-01-27T00:38:37.406Z,24.30
2023-01-27T00:39:37.372Z,26.60
2023-01-27T00:40:37.334Z,26.60
2023-01-27T00:41:37.364Z,24.80
2023-01-27T00:42:37.364Z,24.20
2023-01-27T00:43:37.340Z,23.60
2023-01-27T00:44:37.359Z,26.90
2023-01-27T00:45:37.327Z,26.10
2023-01-27T00:46:37.318Z,26.50
2023-01-27T00:47:37.280Z,26.80
2023-01-27T00:48:37.292Z,26.50
2023-01-27T00:49:37.300Z,24.60
2023-01-27T00:50:37.253Z,23.40
2023-01-27T00:51:37.287Z,24.30
2023-01-27T00:52:37.215Z,26.60
2023-01-27T00:53:37.211Z,24.90
2023-01-27T00:54:37.228Z,25.20
2023-01-27T00:55:37.212Z,25.00
2023-01-27T00:56:37.201Z,29.40
2023-01-27T00:57:37.195Z,31.20
2023-01-27T00:58:37.160Z,26.80
2023-01-27T00:59:37.177Z,29.40
2023-01-27T01:00:37.143Z,27.90
2023-01-27T01:01:37.246Z,30.60
2023-01-27T01:02:37.193Z,28.10
2023-01-27T01:03:37.182Z,27.80
2023-01-27T01:04:37.101Z,25.40
2023-01-27T01:05:37.187Z,25.50
2023-01-27T01:06:37.109Z,25.90
2023-01-27T01:07:37.105Z,25.20
2023-01-27T01:08:37.069Z,26.20
2023-01-27T01:09:37.065Z,24.80
2023-01-27T01:10:37.065Z,25.60
2023-01-27T01:11:37.069Z,27.20
2023-01-27T01:12:37.006Z,27.00
2023-01-27T01:13:37.021Z,22.20
2023-01-27T01:14:37.024Z,25.10
2023-01-27T01:15:37.007Z,27.70
2023-01-27T01:16:36.967Z,23.70
2023-01-27T01:17:37.055Z,23.80
2023-01-27T01:18:36.965Z,24.80
2023-01-27T01:19:36.944Z,20.90
2023-01-27T01:20:36.965Z,23.50
2023-01-27T01:21:36.948Z,26.40
2023-01-27T01:22:36.936Z,26.70
2023-01-27T01:23:36.904Z,27.00
2023-01-27T01:24:36.900Z,25.50
2023-01-27T01:25:36.911Z,22.90
2023-01-27T01:26:36.903Z,28.10
2023-01-27T01:27:36.877Z,23.00
2023-01-27T01:28:36.845Z,24.70
2023-01-27T01:29:36.868Z,24.60
2023-01-27T01:30:36.873Z,25.30
2023-01-27T01:31:36.908Z,26.10
2023-01-27T01:32:36.827Z,30.60
2023-01-27T01:33:36.885Z,25.70
2023-01-27T01:34:36.787Z,26.30
2023-01-27T01:35:36.780Z,31.40
2023-01-27T01:36:36.792Z,25.90
2023-01-27T01:37:36.806Z,26.00
2023-01-27T01:38:36.747Z,25.80
2023-01-27T01:39:36.761Z,26.30
2023-01-27T01:40:36.750Z,25.00
2023-01-27T01:41:36.742Z,26.00
2023-01-27T01:42:36.763Z,22.60
2023-01-27T01:43:36.726Z,23.60
2023-01-27T01:44:36.699Z,19.70
2023-01-27T01:45:36.689Z,23.10
2023-01-27T01:46:36.725Z,24.00
2023-01-27T01:47:36.686Z,25.80
2023-01-27T01:48:36.662Z,24.60
2023-01-27T01:49:36.732Z,22.80
2023-01-27T01:50:36.620Z,26.50
2023-01-27T01:51:36.631Z,22.40
2023-01-27T01:52:36.611Z,20.50
2023-01-27T01:53:36.668Z,23.30
2023-01-27T01:54:36.625Z,24.40
2023-01-27T01:55:36.589Z,25.00
2023-01-27T01:56:36.580Z,23.80
2023-01-27T01:57:36.565Z,24.60
2023-01-27T01:58:36.541Z,22.40
2023-01-27T01:59:36.546Z,21.70
2023-01-27T02:00:36.537Z,20.40
2023-01-27T02:01:36.537Z,22.90
2023-01-27T02:02:36.546Z,23.30
2023-01-27T02:03:36.497Z,26.00
2023-01-27T02:04:36.507Z,24.50
2023-01-27T02:05:36.560Z,23.60
2023-01-27T02:06:36.470Z,21.80
2023-01-27T02:07:36.487Z,24.30
2023-01-27T02:08:36.460Z,23.00
2023-01-27T02:09:36.463Z,23.40
2023-01-27T02:10:36.466Z,26.00
2023-01-27T02:11:36.429Z,24.10
2023-01-27T02:12:36.393Z,26.80
2023-01-27T02:13:36.396Z,26.50
2023-01-27T02:14:36.375Z,27.90
2023-01-27T02:15:36.368Z,24.60
2023-01-27T02:16:36.452Z,24.70
2023-01-27T02:17:36.406Z,23.80
2023-01-27T02:18:36.375Z,24.40
2023-01-27T02:19:36.339Z,23.90
2023-01-27T02:20:36.348Z,29.70
2023-01-27T02:21:36.303Z,25.40
2023-01-27T02:22:36.307Z,24.90
2023-01-27T02:23:36.301Z,27.20
2023-01-27T02:24:36.310Z,24.20
2023-01-27T02:25:36.289Z,24.20
2023-01-27T02:26:36.261Z,27.20
2023-01-27T02:27:36.289Z,27.30
2023-01-27T02:28:36.248Z,30.50
2023-01-27T02:29:36.249Z,26.80
2023-01-27T02:30:36.855Z,28.00
2023-01-27T02:31:36.618Z,26.10
2023-01-27T02:32:36.367Z,27.90
2023-01-27T02:33:36.286Z,22.80
2023-01-27T02:34:36.198Z,30.00
2023-01-27T02:35:36.178Z,27.20
2023-01-27T02:36:36.240Z,27.50
2023-01-27T02:37:36.184Z,26.90
2023-01-27T02:38:36.149Z,28.40
2023-01-27T02:39:36.193Z,29.70
2023-01-27T02:40:36.132Z,28.70
2023-01-27T02:41:36.199Z,30.70
2023-01-27T02:42:36.098Z,27.30
2023-01-27T02:43:36.145Z,30.40
2023-01-27T02:44:36.107Z,25.60
2023-01-27T02:45:36.079Z,30.20
2023-01-27T02:46:36.062Z,28.50
2023-01-27T02:47:36.102Z,32.70
2023-01-27T02:48:36.296Z,28.90
2023-01-27T02:49:36.153Z,32.80
2023-01-27T02:50:36.027Z,33.20
2023-01-27T02:51:36.038Z,30.60
2023-01-27T02:52:36.042Z,31.50
2023-01-27T02:53:36.033Z,38.90
2023-01-27T02:54:35.992Z,32.30
2023-01-27T02:55:36.022Z,30.30
2023-01-27T02:56:36.026Z,32.00
2023-01-27T02:57:35.985Z,36.80
2023-01-27T02:58:35.961Z,34.00
2023-01-27T02:59:35.985Z,35.50
2023-01-27T03:00:35.952Z,32.80
2023-01-27T03:01:35.985Z,37.90
2023-01-27T03:02:36.100Z,37.30
2023-01-27T03:03:35.958Z,34.90
2023-01-27T03:04:35.894Z,31.90
2023-01-27T03:05:35.944Z,36.30
2023-01-27T03:06:35.869Z,34.60
2023-01-27T03:07:35.853Z,35.70
2023-01-27T03:08:35.936Z,36.50
2023-01-27T03:09:35.876Z,37.80
2023-01-27T03:10:35.843Z,34.10
2023-01-27T03:11:35.807Z,36.80
2023-01-27T03:12:35.891Z,38.10
2023-01-27T03:13:35.799Z,42.10
2023-01-27T03:14:35.805Z,39.20
2023-01-27T03:15:35.853Z,41.60
2023-01-27T03:16:35.783Z,43.50
2023-01-27T03:17:35.788Z,38.70
2023-01-27T03:18:35.778Z,42.20
2023-01-27T03:19:35.737Z,42.10
2023-01-27T03:20:35.752Z,44.30
2023-01-27T03:21:35.681Z,40.80
2023-01-27T03:22:35.770Z,42.10
2023-01-27T03:23:35.829Z,43.80
2023-01-27T03:24:37.980Z,40.80
2023-01-27T03:25:35.663Z,42.10
2023-01-27T03:26:35.702Z,41.10
2023-01-27T03:27:35.661Z,44.90
2023-01-27T03:28:35.654Z,44.40
2023-01-27T03:29:35.634Z,44.60
2023-01-27T03:30:35.760Z,39.90
2023-01-27T03:31:35.815Z,44.60
2023-01-27T03:32:35.608Z,42.90
2023-01-27T03:33:35.578Z,38.00
2023-01-27T03:34:35.872Z,46.10
2023-01-27T03:35:35.544Z,43.20
2023-01-27T03:36:35.559Z,42.10
2023-01-27T03:37:35.591Z,42.00
2023-01-27T03:38:35.599Z,43.50
2023-01-27T03:39:35.542Z,48.40
2023-01-27T03:40:35.506Z,44.00
2023-01-27T03:41:35.553Z,43.30
2023-01-27T03:42:35.541Z,46.10
2023-01-27T03:43:35.525Z,43.80
2023-01-27T03:44:35.476Z,41.60
2023-01-27T03:45:35.470Z,42.60
2023-01-27T03:46:35.488Z,44.40
2023-01-27T03:47:35.444Z,45.80
2023-01-27T03:48:35.484Z,43.20
2023-01-27T03:49:35.426Z,45.60
2023-01-27T03:50:35.444Z,47.50
2023-01-27T03:51:35.449Z,43.30
2023-01-27T03:52:35.468Z,41.20
2023-01-27T03:53:35.392Z,43.20
2023-01-27T03:54:35.375Z,42.60
2023-01-27T03:55:35.423Z,41.60
2023-01-27T03:56:36.207Z,43.00
2023-01-27T03:57:35.450Z,39.50
2023-01-27T03:58:35.410Z,43.80
2023-01-27T03:59:35.377Z,40.70
2023-01-27T04:00:35.368Z,39.30
2023-01-27T04:01:35.364Z,35.30
2023-01-27T04:02:36.201Z,36.40
2023-01-27T04:03:35.583Z,43.10
2023-01-27T04:04:35.298Z,37.40
2023-01-27T04:05:35.259Z,36.00
2023-01-27T04:06:35.243Z,39.90
2023-01-27T04:07:35.237Z,39.10
2023-01-27T04:08:35.274Z,38.00
2023-01-27T04:09:35.226Z,40.00
2023-01-27T04:10:35.265Z,37.20
2023-01-27T04:11:35.191Z,37.50
2023-01-27T04:12:35.208Z,40.30
2023-01-27T04:13:35.199Z,38.20
2023-01-27T04:14:35.246Z,37.70
2023-01-27T04:15:35.214Z,38.50
2023-01-27T04:16:35.187Z,35.40
2023-01-27T04:17:35.170Z,36.30
2023-01-27T04:18:35.143Z,36.20
2023-01-27T04:19:35.114Z,33.50
2023-01-27T04:20:35.160Z,34.50
2023-01-27T04:21:35.089Z,39.60
2023-01-27T04:22:35.098Z,35.80
2023-01-27T04:23:35.093Z,31.30
2023-01-27T04:24:35.088Z,37.30
2023-01-27T04:25:35.151Z,32.90
2023-01-27T04:26:35.025Z,33.40
2023-01-27T04:27:35.098Z,35.20
2023-01-27T04:28:44.162Z,32.30
2023-01-27T04:29:35.015Z,31.90
2023-01-27T04:30:35.029Z,30.30
2023-01-27T04:31:35.033Z,31.30
2023-01-27T04:32:34.989Z,32.40
2023-01-27T04:33:34.996Z,30.00
2023-01-27T04:34:34.981Z,33.00
2023-01-27T04:35:38.799Z,32.00
2023-01-27T04:36:35.006Z,30.10
2023-01-27T04:37:34.963Z,29.80
2023-01-27T04:38:34.904Z,28.10
2023-01-27T04:39:34.908Z,29.20
2023-01-27T04:40:34.927Z,30.00
2023-01-27T04:41:34.926Z,30.30
2023-01-27T04:42:34.900Z,25.80
2023-01-27T04:43:34.860Z,25.00
2023-01-27T04:44:34.862Z,27.80
2023-01-27T04:45:34.894Z,27.40
2023-01-27T04:46:34.899Z,26.10
2023-01-27T04:47:34.867Z,30.40
2023-01-27T04:48:34.824Z,29.70
2023-01-27T04:49:34.821Z,27.30
2023-01-27T04:50:34.849Z,27.60
2023-01-27T04:51:34.787Z,26.50
2023-01-27T04:52:34.800Z,24.00
2023-01-27T04:53:34.755Z,24.70
2023-01-27T04:54:34.792Z,24.50
2023-01-27T04:55:34.781Z,25.70
2023-01-27T04:56:34.752Z,23.50
2023-01-27T04:57:34.720Z,21.90
2023-01-27T04:58:35.247Z,22.40
2023-01-27T04:59:34.718Z,23.20
2023-01-27T05:00:34.728Z,22.50
2023-01-27T05:01:34.748Z,20.30
2023-01-27T05:02:34.707Z,21.70
2023-01-27T05:03:34.705Z,18.40
2023-01-27T05:04:34.658Z,18.00
2023-01-27T05:05:34.620Z,18.40
2023-01-27T05:06:34.649Z,19.60
2023-01-27T05:07:34.662Z,21.60
2023-01-27T05:08:34.608Z,19.80
2023-01-27T05:09:34.613Z,21.20
2023-01-27T05:10:34.630Z,19.80
2023-01-27T05:11:34.615Z,18.70
2023-01-27T05:12:34.565Z,21.70
2023-01-27T05:13:34.559Z,18.10
2023-01-27T05:14:34.611Z,18.80
2023-01-27T05:15:34.554Z,17.80
2023-01-27T05:16:34.537Z,18.10
2023-01-27T05:17:34.502Z,16.70
2023-01-27T05:18:34.530Z,16.00
2023-01-27T05:19:34.574Z,18.30
2023-01-27T05:20:34.477Z,17.70
2023-01-27T05:21:34.562Z,19.40
2023-01-27T05:22:34.522Z,18.40
2023-01-27T05:23:34.469Z,16.50
2023-01-27T05:24:34.437Z,15.80
2023-01-27T05:25:34.461Z,15.40
2023-01-27T05:26:35.266Z,15.40
2023-01-27T05:27:34.388Z,16.00
2023-01-27T05:28:34.401Z,15.80
2023-01-27T05:29:34.424Z,16.00
2023-01-27T05:30:34.434Z,15.00
2023-01-27T05:31:34.460Z,13.50
2023-01-27T05:32:34.357Z,14.80
2023-01-27T05:33:34.385Z,14.00
2023-01-27T05:34:34.379Z,13.60
2023-01-27T05:35:34.367Z,15.20
2023-01-27T05:36:34.384Z,14.30
2023-01-27T05:37:34.696Z,14.20
2023-01-27T05:38:34.349Z,13.80
2023-01-27T05:39:34.375Z,14.20
2023-01-27T05:40:34.317Z,13.30
2023-01-27T05:41:34.294Z,13.90
2023-01-27T05:42:34.312Z,14.70
2023-01-27T05:43:34.267Z,11.80
2023-01-27T05:44:34.294Z,11.80
2023-01-27T05:45:34.213Z,14.00
2023-01-27T05:46:34.345Z,12.90
2023-01-27T05:47:34.218Z,12.60
2023-01-27T05:48:34.190Z,12.20
2023-01-27T05:49:34.214Z,14.10
2023-01-27T05:50:34.216Z,14.50
2023-01-27T05:51:34.214Z,13.10
2023-01-27T05:52:34.185Z,14.00
2023-01-27T05:53:34.137Z,12.60
2023-01-27T05:54:34.691Z,13.20
2023-01-27T05:55:34.196Z,13.30
2023-01-27T05:56:34.165Z,14.30
2023-01-27T05:57:34.159Z,12.50
2023-01-27T05:58:34.102Z,11.80
2023-01-27T05:59:34.134Z,11.50
2023-01-27T06:00:34.073Z,12.60
2023-01-27T06:01:34.127Z,12.40
2023-01-27T06:02:34.146Z,15.10
2023-01-27T06:03:34.081Z,13.40
2023-01-27T06:04:34.015Z,14.00
2023-01-27T06:05:34.023Z,13.70
2023-01-27T06:06:34.064Z,12.50
2023-01-27T06:07:34.031Z,14.90
2023-01-27T06:08:34.012Z,13.20
2023-01-27T06:09:34.087Z,14.00
2023-01-27T06:10:33.980Z,15.90
2023-01-27T06:11:34.041Z,14.60
2023-01-27T06:12:33.998Z,14.30
2023-01-27T06:13:34.039Z,14.20
2023-01-27T06:14:34.003Z,14.70
2023-01-27T06:15:34.005Z,14.70
2023-01-27T06:16:33.960Z,16.50
2023-01-27T06:17:33.909Z,14.20
2023-01-27T06:18:33.938Z,14.20
2023-01-27T06:19:33.974Z,14.50
2023-01-27T06:20:33.897Z,13.40
2023-01-27T06:21:34.103Z,15.00
2023-01-27T06:22:33.877Z,14.80
2023-01-27T06:23:33.868Z,15.30
2023-01-27T06:24:33.965Z,14.70
2023-01-27T06:25:33.865Z,16.70
2023-01-27T06:26:33.818Z,15.30
2023-01-27T06:27:33.780Z,15.50
2023-01-27T06:28:33.840Z,14.40
2023-01-27T06:29:33.810Z,14.30
2023-01-27T06:30:33.751Z,15.10
2023-01-27T06:31:33.853Z,14.50
2023-01-27T06:32:33.761Z,13.90
2023-01-27T06:33:34.036Z,14.50
2023-01-27T06:34:33.769Z,15.50
2023-01-27T06:35:33.703Z,15.00
2023-01-27T06:36:33.761Z,15.30
2023-01-27T06:37:33.677Z,12.10
2023-01-27T06:38:34.986Z,13.10
2023-01-27T06:39:33.733Z,13.60
2023-01-27T06:40:33.706Z,15.40
2023-01-27T06:41:33.645Z,14.30
2023-01-27T06:42:33.688Z,14.90
2023-01-27T06:43:33.611Z,14.20
2023-01-27T06:44:33.623Z,14.20
2023-01-27T06:45:33.639Z,13.30
2023-01-27T06:46:33.682Z,14.40
2023-01-27T06:47:33.515Z,13.60
2023-01-27T06:48:33.659Z,15.20
2023-01-27T06:49:33.616Z,14.80
2023-01-27T06:50:33.563Z,12.50
2023-01-27T06:51:33.509Z,13.90
2023-01-27T06:52:33.551Z,13.40
2023-01-27T06:53:33.466Z,14.40
2023-01-27T06:54:33.500Z,14.20
2023-01-27T06:55:33.493Z,14.50
2023-01-27T06:56:33.464Z,14.00
2023-01-27T06:57:33.467Z,14.00
2023-01-27T06:58:34.193Z,14.30
2023-01-27T06:59:33.536Z,14.70
2023-01-27T07:00:33.417Z,14.30
2023-01-27T07:01:33.452Z,13.90
2023-01-27T07:02:33.478Z,13.30
2023-01-27T07:04:40.402Z,14.80
2023-01-27T07:05:41.372Z,15.60
2023-01-27T07:06:41.375Z,14.50
2023-01-27T07:07:41.353Z,14.10
2023-01-27T07:08:41.378Z,14.70
2023-01-27T07:09:52.048Z,14.80
2023-01-27T07:10:41.476Z,15.00
2023-01-27T07:11:41.295Z,14.40
2023-01-27T07:12:41.305Z,15.70
2023-01-27T07:13:41.398Z,14.40
2023-01-27T07:14:41.300Z,14.30
2023-01-27T07:15:41.260Z,13.50
2023-01-27T07:16:42.209Z,14.90
2023-01-27T07:17:41.279Z,15.00
2023-01-27T07:18:41.298Z,14.40
2023-01-27T07:19:41.298Z,13.20
2023-01-27T07:20:41.239Z,15.10
2023-01-27T07:21:41.235Z,13.70
2023-01-27T07:22:41.435Z,13.60
2023-01-27T07:23:41.196Z,13.40
2023-01-27T07:24:41.209Z,13.90
2023-01-27T07:25:41.177Z,13.30
2023-01-27T07:26:41.156Z,14.40
2023-01-27T07:27:41.109Z,13.30
2023-01-27T07:28:41.150Z,12.20
2023-01-27T07:29:41.134Z,16.40
2023-01-27T07:30:41.193Z,13.90
2023-01-27T07:31:41.157Z,14.90
2023-01-27T07:32:41.163Z,13.00
2023-01-27T07:33:41.344Z,12.60
2023-01-27T07:34:41.078Z,14.50
2023-01-27T07:35:41.165Z,14.00
2023-01-27T07:36:41.216Z,14.90
2023-01-27T07:37:41.048Z,12.10
2023-01-27T07:38:41.128Z,13.30
2023-01-27T07:39:41.321Z,12.40
2023-01-27T07:40:41.107Z,13.40
2023-01-27T07:41:41.028Z,13.90
2023-01-27T07:42:41.079Z,13.30
2023-01-27T07:43:41.890Z,14.00
2023-01-27T07:44:41.035Z,11.80
2023-01-27T07:45:41.050Z,13.70
2023-01-27T07:46:41.022Z,14.00
2023-01-27T07:47:40.973Z,13.10
2023-01-27T07:48:41.066Z,13.30
2023-01-27T07:49:41.092Z,12.20
2023-01-27T07:50:41.041Z,13.30
2023-01-27T07:51:41.238Z,14.70
2023-01-27T07:52:41.450Z,12.80
2023-01-27T07:53:41.013Z,15.30
2023-01-27T07:54:41.377Z,13.70
2023-01-27T07:55:41.181Z,13.20
2023-01-27T07:56:40.863Z,13.20
2023-01-27T07:57:41.363Z,14.10
2023-01-27T07:58:40.855Z,13.30
2023-01-27T07:59:40.859Z,14.40
2023-01-27T08:00:40.945Z,13.20
2023-01-27T08:01:41.796Z,11.80
2023-01-27T08:02:40.864Z,13.80
2023-01-27T08:03:40.870Z,14.50
2023-01-27T08:04:52.596Z,11.90
2023-01-27T08:05:40.882Z,12.80
2023-01-27T08:06:40.774Z,12.30
2023-01-27T08:07:40.786Z,13.00
2023-01-27T08:08:40.705Z,12.30
2023-01-27T08:09:40.754Z,12.00
2023-01-27T08:10:40.753Z,12.90
2023-01-27T08:11:40.922Z,11.70
2023-01-27T08:12:40.662Z,11.40
2023-01-27T08:13:40.803Z,11.80
2023-01-27T08:14:40.696Z,12.20
2023-01-27T08:15:40.675Z,12.10
2023-01-27T08:16:40.728Z,12.60
2023-01-27T08:17:40.627Z,12.70
2023-01-27T08:18:40.635Z,13.20
2023-01-27T08:19:40.634Z,13.00
2023-01-27T08:20:40.612Z,11.30
2023-01-27T08:21:40.591Z,11.40
2023-01-27T08:22:40.667Z,11.70
2023-01-27T08:23:40.594Z,11.50
2023-01-27T08:24:40.557Z,12.50
2023-01-27T08:25:40.571Z,10.50
2023-01-27T08:26:40.646Z,12.20
2023-01-27T08:27:40.553Z,12.30
2023-01-27T08:28:40.525Z,13.50
2023-01-27T08:29:40.534Z,12.00
2023-01-27T08:30:40.597Z,12.40
2023-01-27T08:31:40.583Z,12.50
2023-01-27T08:32:40.544Z,10.90
2023-01-27T08:33:40.527Z,13.90
2023-01-27T08:34:40.476Z,12.80
2023-01-27T08:35:40.438Z,14.10
2023-01-27T08:36:40.479Z,14.60
2023-01-27T08:37:40.445Z,13.80
2023-01-27T08:38:40.421Z,13.80
2023-01-27T08:39:40.426Z,13.90
2023-01-27T08:40:40.395Z,11.70
2023-01-27T08:41:40.374Z,11.60
2023-01-27T08:42:40.410Z,10.40
2023-01-27T08:43:40.387Z,12.50
2023-01-27T08:44:40.374Z,11.70
2023-01-27T08:45:40.363Z,11.50
2023-01-27T08:46:40.333Z,12.70
2023-01-27T08:47:40.336Z,12.20
2023-01-27T08:48:40.331Z,11.10
2023-01-27T08:49:40.297Z,11.20
2023-01-27T08:50:40.323Z,11.80
2023-01-27T08:51:40.302Z,12.80
2023-01-27T08:52:40.283Z,13.10
2023-01-27T08:53:40.272Z,12.10
2023-01-27T08:54:40.307Z,12.50
2023-01-27T08:55:40.264Z,12.10
2023-01-27T08:56:40.239Z,14.60
2023-01-27T08:57:40.205Z,12.90
2023-01-27T08:58:40.238Z,11.60
2023-01-27T08:59:40.216Z,11.90
2023-01-27T09:00:40.202Z,12.00
2023-01-27T09:01:40.288Z,11.90
2023-01-27T09:02:40.194Z,12.60
2023-01-27T09:03:40.147Z,12.70
2023-01-27T09:04:40.230Z,12.50
2023-01-27T09:05:40.166Z,11.90
2023-01-27T09:06:40.157Z,11.90
2023-01-27T09:07:40.159Z,13.70
2023-01-27T09:08:40.145Z,11.90
2023-01-27T09:09:40.120Z,14.10
2023-01-27T09:10:40.096Z,12.90
2023-01-27T09:11:40.124Z,12.40
2023-01-27T09:12:40.094Z,12.00
2023-01-27T09:13:40.052Z,12.50
2023-01-27T09:14:40.066Z,11.80
2023-01-27T09:15:40.072Z,12.90
2023-01-27T09:16:40.045Z,11.20
2023-01-27T09:17:40.058Z,13.20
2023-01-27T09:18:40.035Z,11.80
2023-01-27T09:19:40.031Z,11.70
2023-01-27T09:20:40.008Z,13.70
2023-01-27T09:21:39.988Z,12.50
2023-01-27T09:22:40.015Z,14.20
2023-01-27T09:23:39.948Z,12.30
2023-01-27T09:24:39.975Z,11.50
2023-01-27T09:25:39.958Z,12.40
2023-01-27T09:26:39.937Z,11.80
2023-01-27T09:27:40.361Z,12.20
2023-01-27T09:28:39.908Z,12.90
2023-01-27T09:29:39.920Z,11.20
2023-01-27T09:30:41.083Z,12.50
2023-01-27T09:31:40.079Z,11.60
2023-01-27T09:32:39.857Z,12.50
2023-01-27T09:33:39.877Z,11.20
2023-01-27T09:34:39.865Z,11.20
2023-01-27T09:35:39.867Z,11.90
2023-01-27T09:36:39.816Z,14.60
2023-01-27T09:37:39.803Z,11.90
2023-01-27T09:38:39.860Z,12.10
2023-01-27T09:39:39.794Z,12.80
2023-01-27T09:40:39.807Z,13.70
2023-01-27T09:41:39.838Z,12.40
2023-01-27T09:42:39.796Z,11.80
2023-01-27T09:43:39.795Z,12.00
2023-01-27T09:44:39.737Z,13.20
2023-01-27T09:45:39.781Z,11.80
2023-01-27T09:46:39.723Z,13.20
2023-01-27T09:47:39.745Z,12.50
2023-01-27T09:48:39.817Z,11.90
2023-01-27T09:49:39.774Z,14.60
2023-01-27T09:50:39.690Z,12.70
2023-01-27T09:51:39.758Z,11.50
2023-01-27T09:52:47.566Z,14.20
2023-01-27T09:53:39.660Z,11.80
2023-01-27T09:54:39.667Z,12.90
2023-01-27T09:55:39.659Z,12.30
2023-01-27T09:56:39.646Z,11.00
2023-01-27T09:57:39.648Z,11.50
2023-01-27T09:58:39.605Z,10.90
2023-01-27T09:59:42.011Z,12.40
2023-01-27T10:00:39.601Z,12.10
2023-01-27T10:01:39.641Z,12.40
2023-01-27T10:02:39.559Z,12.00
2023-01-27T10:03:39.595Z,11.70
2023-01-27T10:04:39.586Z,11.90
2023-01-27T10:05:39.570Z,10.80
2023-01-27T10:06:39.515Z,10.10
2023-01-27T10:07:39.518Z,11.90
2023-01-27T10:08:39.540Z,11.10
2023-01-27T10:09:39.529Z,10.20
2023-01-27T10:10:39.473Z,10.70
2023-01-27T10:11:39.481Z,11.60
2023-01-27T10:12:39.487Z,11.10
2023-01-27T10:13:39.472Z,10.10
2023-01-27T10:14:39.501Z,9.70
2023-01-27T10:15:39.443Z,10.60
2023-01-27T10:16:39.616Z,9.30
2023-01-27T10:17:39.481Z,9.10
2023-01-27T10:18:39.426Z,9.80
2023-01-27T10:19:39.389Z,9.80
2023-01-27T10:20:39.405Z,9.20
2023-01-27T10:21:39.434Z,8.30
2023-01-27T10:22:39.359Z,10.70
2023-01-27T10:23:39.373Z,10.80
2023-01-27T10:24:39.318Z,9.50
2023-01-27T10:25:39.371Z,11.90
2023-01-27T10:26:39.321Z,9.50
2023-01-27T10:27:39.322Z,10.60
2023-01-27T10:28:39.340Z,10.70
2023-01-27T10:29:39.353Z,10.40
2023-01-27T10:30:39.312Z,9.40
2023-01-27T10:31:39.341Z,10.10
2023-01-27T10:32:39.250Z,9.70
2023-01-27T10:33:39.292Z,10.30
2023-01-27T10:34:39.239Z,8.90
2023-01-27T10:35:39.222Z,10.10
2023-01-27T10:36:39.216Z,9.00
2023-01-27T10:37:39.224Z,12.00
2023-01-27T10:38:39.237Z,9.10
2023-01-27T10:39:39.215Z,8.50
2023-01-27T10:40:39.254Z,9.60
2023-01-27T10:41:39.185Z,8.50
2023-01-27T10:42:39.183Z,8.70
2023-01-27T10:43:39.161Z,9.00
2023-01-27T10:44:39.180Z,9.50
2023-01-27T10:45:39.136Z,8.30
2023-01-27T10:46:39.154Z,10.10
2023-01-27T10:47:39.181Z,8.10
2023-01-27T10:48:39.153Z,7.80
2023-01-27T10:49:39.107Z,9.00
2023-01-27T10:50:39.079Z,7.80
2023-01-27T10:51:39.080Z,8.10
2023-01-27T10:52:39.070Z,9.20
2023-01-27T10:53:39.088Z,7.70
2023-01-27T10:54:39.097Z,7.70
2023-01-27T10:55:39.038Z,8.30
2023-01-27T10:56:39.046Z,7.60
2023-01-27T10:57:39.034Z,7.20
2023-01-27T10:58:38.991Z,7.50
2023-01-27T10:59:39.002Z,7.90
2023-01-27T11:01:14.028Z,7.60
2023-01-27T11:01:39.029Z,7.00
2023-01-27T11:02:38.997Z,7.10
2023-01-27T11:03:38.941Z,7.10
2023-01-27T11:04:38.958Z,9.00
2023-01-27T11:05:38.958Z,7.60
2023-01-27T11:06:38.935Z,8.90
2023-01-27T11:07:38.950Z,7.40
2023-01-27T11:08:38.908Z,7.70
2023-01-27T11:09:38.891Z,9.30
2023-01-27T11:10:38.895Z,7.60
2023-01-27T11:11:38.862Z,8.20
2023-01-27T11:12:38.866Z,8.20
2023-01-27T11:13:38.964Z,8.90
2023-01-27T11:14:39.022Z,7.60
2023-01-27T11:15:38.833Z,6.40
2023-01-27T11:16:38.931Z,6.10
2023-01-27T11:17:38.889Z,5.90
2023-01-27T11:18:38.815Z,6.90
2023-01-27T11:19:38.787Z,7.10
2023-01-27T11:20:38.765Z,7.50
2023-01-27T11:21:38.831Z,6.60
2023-01-27T11:22:38.810Z,7.20
2023-01-27T11:23:38.794Z,4.60
2023-01-27T11:24:38.745Z,6.00
2023-01-27T11:25:38.726Z,4.90
2023-01-27T11:26:38.738Z,5.00
2023-01-27T11:27:38.783Z,5.10
2023-01-27T11:28:38.725Z,6.00
2023-01-27T11:29:38.698Z,5.50
2023-01-27T11:30:38.690Z,5.00
2023-01-27T11:31:38.746Z,5.40
2023-01-27T11:32:38.642Z,5.10
2023-01-27T11:33:38.918Z,4.30
2023-01-27T11:34:38.682Z,4.10
2023-01-27T11:35:38.672Z,5.00
2023-01-27T11:36:38.699Z,4.30
2023-01-27T11:37:38.612Z,5.10
2023-01-27T11:38:38.610Z,4.30
2023-01-27T11:39:38.618Z,3.80
2023-01-27T11:40:38.602Z,4.00
2023-01-27T11:41:38.602Z,4.90
2023-01-27T11:42:38.563Z,3.70
2023-01-27T11:43:38.633Z,3.70
2023-01-27T11:44:38.532Z,3.70
2023-01-27T11:45:39.029Z,3.90
2023-01-27T11:46:38.537Z,4.50
2023-01-27T11:47:38.524Z,4.10
2023-01-27T11:48:38.519Z,4.20
2023-01-27T11:49:38.495Z,4.20
2023-01-27T11:50:38.578Z,4.30
2023-01-27T11:51:38.533Z,3.50
2023-01-27T11:52:38.468Z,4.70
2023-01-27T11:53:38.430Z,5.30
2023-01-27T11:54:38.508Z,5.30
2023-01-27T11:55:38.447Z,3.70
2023-01-27T11:56:38.469Z,5.10
2023-01-27T11:57:38.436Z,5.70
2023-01-27T11:58:38.462Z,4.70
2023-01-27T11:59:38.428Z,5.10
2023-01-27T12:00:38.441Z,4.00
2023-01-27T12:01:38.481Z,6.30
2023-01-27T12:02:38.371Z,4.10
2023-01-27T12:03:38.398Z,4.60
2023-01-27T12:04:38.394Z,4.20
2023-01-27T12:05:38.338Z,5.70
2023-01-27T12:06:38.322Z,4.70
2023-01-27T12:07:38.379Z,4.60
2023-01-27T12:08:38.274Z,5.80
2023-01-27T12:09:38.305Z,5.50
2023-01-27T12:10:38.308Z,5.90
2023-01-27T12:11:38.354Z,5.20
2023-01-27T12:12:38.258Z,6.00
2023-01-27T12:13:38.319Z,4.50
2023-01-27T12:14:38.223Z,5.30
2023-01-27T12:15:38.374Z,4.60
2023-01-27T12:16:38.241Z,5.30
2023-01-27T12:17:38.245Z,4.90
2023-01-27T12:18:38.219Z,5.60
2023-01-27T12:19:38.242Z,6.40
2023-01-27T12:20:38.216Z,5.30
2023-01-27T12:21:38.179Z,4.30
2023-01-27T12:22:38.197Z,5.00
2023-01-27T12:23:38.171Z,8.20
2023-01-27T12:24:38.147Z,5.30
2023-01-27T12:25:38.173Z,4.20
2023-01-27T12:26:38.162Z,4.90
2023-01-27T12:27:38.107Z,4.70
2023-01-27T12:28:38.099Z,5.80
2023-01-27T12:29:38.091Z,5.10
2023-01-27T12:30:38.158Z,4.70
2023-01-27T12:31:38.224Z,5.80
2023-01-27T12:32:38.080Z,4.90
2023-01-27T12:33:38.230Z,4.80
2023-01-27T12:34:38.007Z,4.40
2023-01-27T12:35:38.089Z,5.10
2023-01-27T12:36:38.057Z,5.50
2023-01-27T12:37:38.195Z,4.90
2023-01-27T12:38:37.992Z,5.50
2023-01-27T12:39:38.079Z,4.00
2023-01-27T12:40:38.026Z,5.10
2023-01-27T12:41:37.998Z,6.20
2023-01-27T12:42:38.004Z,4.80
2023-01-27T12:43:37.927Z,4.90
2023-01-27T12:44:37.988Z,5.20
2023-01-27T12:45:37.929Z,4.20
2023-01-27T12:46:37.963Z,4.40
2023-01-27T12:47:38.001Z,4.40
2023-01-27T12:48:37.895Z,5.80
2023-01-27T12:49:37.922Z,5.10
2023-01-27T12:50:37.857Z,4.50
2023-01-27T12:51:37.844Z,3.80
2023-01-27T12:52:37.836Z,5.30
2023-01-27T12:53:37.821Z,4.80
2023-01-27T12:54:37.898Z,4.10
2023-01-27T12:55:37.859Z,4.00
2023-01-27T12:56:37.876Z,3.40
2023-01-27T12:57:37.824Z,3.60
2023-01-27T12:58:37.767Z,3.80